sensor_id;sensor_type;location;lat;lon;timestamp;P1;durP1;ratioP1;P2;durP2;ratioP2
12908;SDS011;6522;49.622;6.126;2023-08-06T00:00:39;1.20;;;1.10;;
12908;SDS011;6522;49.622;6.126;2023-08-06T00:03:26;1.45;;;1.35;;
12908;SDS011;6522;49.622;6.126;2023-08-06T00:06:13;1.20;;;1.10;;
12908;SDS011;6522;49.622;6.126;2023-08-06T00:09:00;1.40;;;1.30;;
12908;SDS011;6522;49.622;6.126;2023-08-06T00:11:47;1.40;;;1.30;;
12908;SDS011;6522;49.622;6.126;2023-08-06T00:14:34;1.20;;;1.10;;
12908;SDS011;6522;49.622;6.126;2023-08-06T00:17:20;1.20;;;1.10;;
12908;SDS011;6522;49.622;6.126;2023-08-06T00:20:07;1.20;;;1.10;;
12908;SDS011;6522;49.622;6.126;2023-08-06T00:22:54;1.20;;;1.10;;
12908;SDS011;6522;49.622;6.126;2023-08-06T00:25:41;1.20;;;1.10;;
12908;SDS011;6522;49.622;6.126;2023-08-06T00:28:27;3.08;;;1.62;;
12908;SDS011;6522;49.622;6.126;2023-08-06T00:31:14;1.20;;;1.10;;
12908;SDS011;6522;49.622;6.126;2023-08-06T00:34:01;1.10;;;1.00;;
12908;SDS011;6522;49.622;6.126;2023-08-06T00:36:48;1.20;;;1.10;;
12908;SDS011;6522;49.622;6.126;2023-08-06T00:39:35;1.15;;;1.05;;
12908;SDS011;6522;49.622;6.126;2023-08-06T00:42:21;1.20;;;1.10;;
12908;SDS011;6522;49.622;6.126;2023-08-06T00:45:09;1.20;;;1.10;;
12908;SDS011;6522;49.622;6.126;2023-08-06T00:47:56;1.20;;;1.10;;
12908;SDS011;6522;49.622;6.126;2023-08-06T00:50:43;1.10;;;1.00;;
12908;SDS011;6522;49.622;6.126;2023-08-06T00:53:30;1.10;;;1.00;;
12908;SDS011;6522;49.622;6.126;2023-08-06T00:56:17;1.20;;;1.10;;
12908;SDS011;6522;49.622;6.126;2023-08-06T00:59:04;1.17;;;1.08;;
12908;SDS011;6522;49.622;6.126;2023-08-06T01:01:51;1.10;;;1.00;;
12908;SDS011;6522;49.622;6.126;2023-08-06T01:04:37;1.10;;;1.00;;
12908;SDS011;6522;49.622;6.126;2023-08-06T01:10:33;1.10;;;1.00;;
12908;SDS011;6522;49.622;6.126;2023-08-06T01:13:18;1.65;;;1.55;;
12908;SDS011;6522;49.622;6.126;2023-08-06T01:16:04;1.10;;;1.00;;
12908;SDS011;6522;49.622;6.126;2023-08-06T01:18:51;1.00;;;0.90;;
12908;SDS011;6522;49.622;6.126;2023-08-06T01:21:37;1.10;;;1.00;;
12908;SDS011;6522;49.622;6.126;2023-08-06T01:24:24;1.20;;;1.10;;
12908;SDS011;6522;49.622;6.126;2023-08-06T01:27:14;1.17;;;1.08;;
12908;SDS011;6522;49.622;6.126;2023-08-06T01:30:09;1.20;;;1.10;;
12908;SDS011;6522;49.622;6.126;2023-08-06T01:32:44;1.20;;;1.10;;
12908;SDS011;6522;49.622;6.126;2023-08-06T01:35:30;1.10;;;1.00;;
12908;SDS011;6522;49.622;6.126;2023-08-06T01:38:17;1.20;;;1.10;;
12908;SDS011;6522;49.622;6.126;2023-08-06T01:41:04;1.20;;;1.10;;
12908;SDS011;6522;49.622;6.126;2023-08-06T01:43:51;1.10;;;1.00;;
12908;SDS011;6522;49.622;6.126;2023-08-06T01:46:37;1.15;;;1.05;;
12908;SDS011;6522;49.622;6.126;2023-08-06T01:49:25;1.20;;;1.10;;
12908;SDS011;6522;49.622;6.126;2023-08-06T01:52:11;1.20;;;1.10;;
12908;SDS011;6522;49.622;6.126;2023-08-06T01:54:58;1.20;;;1.10;;
12908;SDS011;6522;49.622;6.126;2023-08-06T01:57:45;1.30;;;1.20;;
12908;SDS011;6522;49.622;6.126;2023-08-06T02:00:31;0.80;;;0.40;;
12908;SDS011;6522;49.622;6.126;2023-08-06T02:03:18;1.20;;;1.10;;
12908;SDS011;6522;49.622;6.126;2023-08-06T02:06:05;2.03;;;1.92;;
12908;SDS011;6522;49.622;6.126;2023-08-06T02:08:52;1.80;;;1.70;;
12908;SDS011;6522;49.622;6.126;2023-08-06T02:11:39;1.30;;;1.20;;
12908;SDS011;6522;49.622;6.126;2023-08-06T02:14:26;1.30;;;1.20;;
12908;SDS011;6522;49.622;6.126;2023-08-06T02:17:13;1.30;;;1.20;;
12908;SDS011;6522;49.622;6.126;2023-08-06T02:20:00;1.15;;;1.05;;
12908;SDS011;6522;49.622;6.126;2023-08-06T02:22:46;0.80;;;0.40;;
12908;SDS011;6522;49.622;6.126;2023-08-06T02:25:33;1.27;;;1.17;;
12908;SDS011;6522;49.622;6.126;2023-08-06T02:28:19;1.30;;;1.20;;
12908;SDS011;6522;49.622;6.126;2023-08-06T02:31:07;1.30;;;1.20;;
12908;SDS011;6522;49.622;6.126;2023-08-06T02:33:53;1.30;;;1.20;;
12908;SDS011;6522;49.622;6.126;2023-08-06T02:36:40;1.30;;;1.20;;
12908;SDS011;6522;49.622;6.126;2023-08-06T02:39:27;1.20;;;1.10;;
12908;SDS011;6522;49.622;6.126;2023-08-06T02:42:13;1.30;;;1.20;;
12908;SDS011;6522;49.622;6.126;2023-08-06T02:45:00;1.20;;;1.10;;
12908;SDS011;6522;49.622;6.126;2023-08-06T02:47:46;1.20;;;1.10;;
12908;SDS011;6522;49.622;6.126;2023-08-06T02:50:40;1.30;;;1.20;;
12908;SDS011;6522;49.622;6.126;2023-08-06T02:53:27;1.30;;;1.20;;
12908;SDS011;6522;49.622;6.126;2023-08-06T02:56:14;0.90;;;0.60;;
12908;SDS011;6522;49.622;6.126;2023-08-06T02:59:00;1.30;;;1.20;;
12908;SDS011;6522;49.622;6.126;2023-08-06T03:01:47;1.30;;;1.20;;
12908;SDS011;6522;49.622;6.126;2023-08-06T03:04:34;1.75;;;1.65;;
12908;SDS011;6522;49.622;6.126;2023-08-06T03:07:20;1.80;;;1.70;;
12908;SDS011;6522;49.622;6.126;2023-08-06T03:10:07;1.20;;;1.10;;
12908;SDS011;6522;49.622;6.126;2023-08-06T03:12:53;1.20;;;1.10;;
12908;SDS011;6522;49.622;6.126;2023-08-06T03:15:40;2.80;;;0.90;;
12908;SDS011;6522;49.622;6.126;2023-08-06T03:18:27;1.30;;;1.20;;
12908;SDS011;6522;49.622;6.126;2023-08-06T03:21:13;1.20;;;1.10;;
12908;SDS011;6522;49.622;6.126;2023-08-06T03:24:00;1.10;;;1.00;;
12908;SDS011;6522;49.622;6.126;2023-08-06T03:26:47;1.05;;;0.95;;
12908;SDS011;6522;49.622;6.126;2023-08-06T03:29:34;1.10;;;1.00;;
12908;SDS011;6522;49.622;6.126;2023-08-06T03:32:21;1.00;;;0.60;;
12908;SDS011;6522;49.622;6.126;2023-08-06T03:35:07;1.00;;;0.90;;
12908;SDS011;6522;49.622;6.126;2023-08-06T03:37:54;1.08;;;0.98;;
12908;SDS011;6522;49.622;6.126;2023-08-06T03:40:41;0.80;;;0.40;;
12908;SDS011;6522;49.622;6.126;2023-08-06T03:43:30;1.30;;;1.20;;
12908;SDS011;6522;49.622;6.126;2023-08-06T03:46:17;1.30;;;1.20;;
12908;SDS011;6522;49.622;6.126;2023-08-06T03:49:04;1.20;;;1.10;;
12908;SDS011;6522;49.622;6.126;2023-08-06T03:51:51;1.25;;;1.15;;
12908;SDS011;6522;49.622;6.126;2023-08-06T03:54:38;1.20;;;1.10;;
12908;SDS011;6522;49.622;6.126;2023-08-06T03:57:25;1.30;;;1.20;;
12908;SDS011;6522;49.622;6.126;2023-08-06T04:00:11;1.10;;;1.00;;
12908;SDS011;6522;49.622;6.126;2023-08-06T04:02:58;1.20;;;1.10;;
12908;SDS011;6522;49.622;6.126;2023-08-06T04:05:45;1.10;;;1.00;;
12908;SDS011;6522;49.622;6.126;2023-08-06T04:08:32;1.20;;;1.10;;
12908;SDS011;6522;49.622;6.126;2023-08-06T04:11:19;1.10;;;1.00;;
12908;SDS011;6522;49.622;6.126;2023-08-06T04:14:05;1.00;;;0.90;;
12908;SDS011;6522;49.622;6.126;2023-08-06T04:16:52;1.10;;;1.00;;
12908;SDS011;6522;49.622;6.126;2023-08-06T04:19:38;1.10;;;1.00;;
12908;SDS011;6522;49.622;6.126;2023-08-06T04:22:25;0.80;;;0.40;;
12908;SDS011;6522;49.622;6.126;2023-08-06T04:25:12;1.00;;;0.90;;
12908;SDS011;6522;49.622;6.126;2023-08-06T04:27:58;1.10;;;1.00;;
12908;SDS011;6522;49.622;6.126;2023-08-06T04:30:45;1.05;;;0.95;;
12908;SDS011;6522;49.622;6.126;2023-08-06T04:33:32;1.00;;;0.90;;
12908;SDS011;6522;49.622;6.126;2023-08-06T04:36:19;0.80;;;0.40;;
12908;SDS011;6522;49.622;6.126;2023-08-06T04:39:05;1.00;;;0.90;;
12908;SDS011;6522;49.622;6.126;2023-08-06T04:41:52;1.00;;;0.90;;
12908;SDS011;6522;49.622;6.126;2023-08-06T04:44:39;0.80;;;0.40;;
12908;SDS011;6522;49.622;6.126;2023-08-06T04:47:26;1.00;;;0.90;;
12908;SDS011;6522;49.622;6.126;2023-08-06T04:50:12;1.00;;;0.90;;
12908;SDS011;6522;49.622;6.126;2023-08-06T04:52:59;1.00;;;0.80;;
12908;SDS011;6522;49.622;6.126;2023-08-06T04:55:47;1.00;;;0.80;;
12908;SDS011;6522;49.622;6.126;2023-08-06T04:58:33;1.00;;;0.77;;
12908;SDS011;6522;49.622;6.126;2023-08-06T05:01:21;1.02;;;0.88;;
12908;SDS011;6522;49.622;6.126;2023-08-06T05:04:07;0.90;;;0.80;;
12908;SDS011;6522;49.622;6.126;2023-08-06T05:06:54;1.00;;;0.90;;
12908;SDS011;6522;49.622;6.126;2023-08-06T05:09:40;1.20;;;1.10;;
12908;SDS011;6522;49.622;6.126;2023-08-06T05:12:27;1.42;;;1.33;;
12908;SDS011;6522;49.622;6.126;2023-08-06T05:15:13;0.90;;;0.60;;
12908;SDS011;6522;49.622;6.126;2023-08-06T05:18:00;1.20;;;1.10;;
12908;SDS011;6522;49.622;6.126;2023-08-06T05:20:47;1.30;;;1.10;;
12908;SDS011;6522;49.622;6.126;2023-08-06T05:23:34;1.10;;;1.00;;
12908;SDS011;6522;49.622;6.126;2023-08-06T05:26:20;2.28;;;2.17;;
12908;SDS011;6522;49.622;6.126;2023-08-06T05:29:07;1.10;;;1.00;;
12908;SDS011;6522;49.622;6.126;2023-08-06T05:31:54;1.00;;;0.60;;
12908;SDS011;6522;49.622;6.126;2023-08-06T05:34:41;0.90;;;0.60;;
12908;SDS011;6522;49.622;6.126;2023-08-06T05:37:27;1.20;;;1.10;;
12908;SDS011;6522;49.622;6.126;2023-08-06T05:40:14;1.20;;;1.10;;
12908;SDS011;6522;49.622;6.126;2023-08-06T05:43:01;1.27;;;1.17;;
12908;SDS011;6522;49.622;6.126;2023-08-06T05:45:51;1.20;;;1.10;;
12908;SDS011;6522;49.622;6.126;2023-08-06T05:48:37;1.10;;;1.00;;
12908;SDS011;6522;49.622;6.126;2023-08-06T05:51:25;1.30;;;1.20;;
12908;SDS011;6522;49.622;6.126;2023-08-06T05:54:11;1.20;;;1.10;;
12908;SDS011;6522;49.622;6.126;2023-08-06T05:56:57;1.10;;;1.00;;
12908;SDS011;6522;49.622;6.126;2023-08-06T05:59:44;1.10;;;0.90;;
12908;SDS011;6522;49.622;6.126;2023-08-06T06:02:31;1.10;;;0.90;;
12908;SDS011;6522;49.622;6.126;2023-08-06T06:05:17;1.10;;;1.00;;
12908;SDS011;6522;49.622;6.126;2023-08-06T06:08:04;1.40;;;1.12;;
12908;SDS011;6522;49.622;6.126;2023-08-06T06:10:51;2.10;;;1.90;;
12908;SDS011;6522;49.622;6.126;2023-08-06T06:13:38;1.77;;;1.60;;
12908;SDS011;6522;49.622;6.126;2023-08-06T06:16:24;3.22;;;1.50;;
12908;SDS011;6522;49.622;6.126;2023-08-06T06:19:11;1.62;;;1.52;;
12908;SDS011;6522;49.622;6.126;2023-08-06T06:21:57;1.80;;;1.70;;
12908;SDS011;6522;49.622;6.126;2023-08-06T06:24:44;2.25;;;2.00;;
12908;SDS011;6522;49.622;6.126;2023-08-06T06:27:31;2.50;;;2.30;;
12908;SDS011;6522;49.622;6.126;2023-08-06T06:30:17;1.70;;;1.60;;
12908;SDS011;6522;49.622;6.126;2023-08-06T06:33:04;2.10;;;1.90;;
12908;SDS011;6522;49.622;6.126;2023-08-06T06:35:51;2.00;;;1.80;;
12908;SDS011;6522;49.622;6.126;2023-08-06T06:38:38;2.12;;;1.80;;
12908;SDS011;6522;49.622;6.126;2023-08-06T06:41:24;2.33;;;1.92;;
12908;SDS011;6522;49.622;6.126;2023-08-06T06:44:11;2.47;;;2.15;;
12908;SDS011;6522;49.622;6.126;2023-08-06T06:46:59;2.78;;;2.15;;
12908;SDS011;6522;49.622;6.126;2023-08-06T06:49:45;2.10;;;1.90;;
12908;SDS011;6522;49.622;6.126;2023-08-06T06:52:32;2.30;;;2.10;;
12908;SDS011;6522;49.622;6.126;2023-08-06T06:55:19;2.92;;;2.65;;
12908;SDS011;6522;49.622;6.126;2023-08-06T06:58:06;2.50;;;2.30;;
12908;SDS011;6522;49.622;6.126;2023-08-06T07:00:52;2.33;;;2.12;;
12908;SDS011;6522;49.622;6.126;2023-08-06T07:03:39;2.30;;;2.10;;
12908;SDS011;6522;49.622;6.126;2023-08-06T07:06:26;2.17;;;2.00;;
12908;SDS011;6522;49.622;6.126;2023-08-06T07:09:12;1.92;;;1.80;;
12908;SDS011;6522;49.622;6.126;2023-08-06T07:11:59;1.65;;;1.40;;
12908;SDS011;6522;49.622;6.126;2023-08-06T07:14:46;2.35;;;2.17;;
12908;SDS011;6522;49.622;6.126;2023-08-06T07:17:33;1.95;;;1.85;;
12908;SDS011;6522;49.622;6.126;2023-08-06T07:20:20;2.47;;;2.28;;
12908;SDS011;6522;49.622;6.126;2023-08-06T07:23:07;2.25;;;2.05;;
12908;SDS011;6522;49.622;6.126;2023-08-06T07:25:53;1.80;;;1.40;;
12908;SDS011;6522;49.622;6.126;2023-08-06T07:28:40;1.87;;;1.65;;
12908;SDS011;6522;49.622;6.126;2023-08-06T07:31:27;1.92;;;1.20;;
12908;SDS011;6522;49.622;6.126;2023-08-06T07:34:14;2.33;;;2.12;;
12908;SDS011;6522;49.622;6.126;2023-08-06T07:37:01;1.70;;;1.60;;
12908;SDS011;6522;49.622;6.126;2023-08-06T07:39:47;2.40;;;2.20;;
12908;SDS011;6522;49.622;6.126;2023-08-06T07:42:34;2.17;;;1.98;;
12908;SDS011;6522;49.622;6.126;2023-08-06T07:45:21;2.12;;;1.90;;
12908;SDS011;6522;49.622;6.126;2023-08-06T07:48:08;1.50;;;1.00;;
12908;SDS011;6522;49.622;6.126;2023-08-06T07:50:55;1.83;;;1.73;;
12908;SDS011;6522;49.622;6.126;2023-08-06T07:53:41;1.55;;;1.45;;
12908;SDS011;6522;49.622;6.126;2023-08-06T07:56:28;1.87;;;1.77;;
12908;SDS011;6522;49.622;6.126;2023-08-06T07:59:15;1.87;;;1.62;;
12908;SDS011;6522;49.622;6.126;2023-08-06T08:02:01;2.10;;;1.90;;
12908;SDS011;6522;49.622;6.126;2023-08-06T08:04:48;1.40;;;1.30;;
12908;SDS011;6522;49.622;6.126;2023-08-06T08:07:35;2.20;;;1.20;;
12908;SDS011;6522;49.622;6.126;2023-08-06T08:10:22;2.00;;;1.90;;
12908;SDS011;6522;49.622;6.126;2023-08-06T08:13:09;3.47;;;2.17;;
12908;SDS011;6522;49.622;6.126;2023-08-06T08:15:59;4.18;;;2.45;;
12908;SDS011;6522;49.622;6.126;2023-08-06T08:18:45;4.00;;;2.35;;
12908;SDS011;6522;49.622;6.126;2023-08-06T08:21:32;2.40;;;2.20;;
12908;SDS011;6522;49.622;6.126;2023-08-06T08:24:18;3.00;;;2.28;;
12908;SDS011;6522;49.622;6.126;2023-08-06T08:27:05;4.47;;;2.67;;
12908;SDS011;6522;49.622;6.126;2023-08-06T08:29:52;2.47;;;2.28;;
12908;SDS011;6522;49.622;6.126;2023-08-06T08:32:39;3.40;;;2.53;;
12908;SDS011;6522;49.622;6.126;2023-08-06T08:35:26;4.87;;;3.78;;
12908;SDS011;6522;49.622;6.126;2023-08-06T08:38:13;3.12;;;2.67;;
12908;SDS011;6522;49.622;6.126;2023-08-06T08:40:59;3.35;;;2.70;;
12908;SDS011;6522;49.622;6.126;2023-08-06T08:43:46;2.58;;;2.37;;
12908;SDS011;6522;49.622;6.126;2023-08-06T08:46:33;2.42;;;1.50;;
12908;SDS011;6522;49.622;6.126;2023-08-06T08:49:20;2.87;;;2.55;;
12908;SDS011;6522;49.622;6.126;2023-08-06T08:52:07;3.00;;;2.45;;
12908;SDS011;6522;49.622;6.126;2023-08-06T08:54:53;2.62;;;2.10;;
12908;SDS011;6522;49.622;6.126;2023-08-06T08:57:40;3.10;;;2.40;;
12908;SDS011;6522;49.622;6.126;2023-08-06T09:00:27;2.60;;;2.40;;
12908;SDS011;6522;49.622;6.126;2023-08-06T09:03:14;3.28;;;2.53;;
12908;SDS011;6522;49.622;6.126;2023-08-06T09:06:01;4.15;;;3.05;;
12908;SDS011;6522;49.622;6.126;2023-08-06T09:08:51;3.33;;;2.95;;
12908;SDS011;6522;49.622;6.126;2023-08-06T09:11:35;3.78;;;3.35;;
12908;SDS011;6522;49.622;6.126;2023-08-06T09:14:20;6.45;;;3.90;;
12908;SDS011;6522;49.622;6.126;2023-08-06T09:17:08;7.95;;;4.10;;
12908;SDS011;6522;49.622;6.126;2023-08-06T09:19:54;6.60;;;3.45;;
12908;SDS011;6522;49.622;6.126;2023-08-06T09:22:41;5.60;;;3.50;;
12908;SDS011;6522;49.622;6.126;2023-08-06T09:25:28;5.50;;;3.10;;
12908;SDS011;6522;49.622;6.126;2023-08-06T09:28:15;3.20;;;2.90;;
12908;SDS011;6522;49.622;6.126;2023-08-06T09:31:02;3.50;;;2.80;;
12908;SDS011;6522;49.622;6.126;2023-08-06T09:33:49;3.90;;;2.45;;
12908;SDS011;6522;49.622;6.126;2023-08-06T09:36:39;5.00;;;2.60;;
12908;SDS011;6522;49.622;6.126;2023-08-06T09:39:26;3.95;;;2.62;;
12908;SDS011;6522;49.622;6.126;2023-08-06T09:42:09;10.35;;;2.78;;
12908;SDS011;6522;49.622;6.126;2023-08-06T09:45:05;3.85;;;3.08;;
12908;SDS011;6522;49.622;6.126;2023-08-06T09:47:43;5.45;;;3.80;;
12908;SDS011;6522;49.622;6.126;2023-08-06T09:50:31;4.93;;;3.40;;
12908;SDS011;6522;49.622;6.126;2023-08-06T09:53:17;4.90;;;3.62;;
12908;SDS011;6522;49.622;6.126;2023-08-06T09:56:04;3.55;;;3.10;;
12908;SDS011;6522;49.622;6.126;2023-08-06T09:58:51;5.07;;;2.70;;
12908;SDS011;6522;49.622;6.126;2023-08-06T10:01:37;3.30;;;3.00;;
12908;SDS011;6522;49.622;6.126;2023-08-06T10:04:25;5.10;;;3.80;;
12908;SDS011;6522;49.622;6.126;2023-08-06T10:07:11;4.30;;;3.20;;
12908;SDS011;6522;49.622;6.126;2023-08-06T10:09:58;4.50;;;3.25;;
12908;SDS011;6522;49.622;6.126;2023-08-06T10:12:48;3.85;;;3.50;;
12908;SDS011;6522;49.622;6.126;2023-08-06T10:15:31;3.75;;;3.45;;
12908;SDS011;6522;49.622;6.126;2023-08-06T10:18:18;3.70;;;3.40;;
12908;SDS011;6522;49.622;6.126;2023-08-06T10:21:07;4.03;;;3.35;;
12908;SDS011;6522;49.622;6.126;2023-08-06T10:23:54;3.08;;;2.87;;
12908;SDS011;6522;49.622;6.126;2023-08-06T10:26:41;3.08;;;2.78;;
12908;SDS011;6522;49.622;6.126;2023-08-06T10:29:37;5.07;;;2.50;;
12908;SDS011;6522;49.622;6.126;2023-08-06T10:32:39;3.10;;;2.80;;
12908;SDS011;6522;49.622;6.126;2023-08-06T10:35:27;3.40;;;3.10;;
12908;SDS011;6522;49.622;6.126;2023-08-06T10:37:58;3.08;;;2.78;;
12908;SDS011;6522;49.622;6.126;2023-08-06T10:43:41;3.35;;;3.05;;
12908;SDS011;6522;49.622;6.126;2023-08-06T10:46:28;2.80;;;2.58;;
12908;SDS011;6522;49.622;6.126;2023-08-06T10:49:16;3.75;;;3.55;;
12908;SDS011;6522;49.622;6.126;2023-08-06T10:52:01;4.45;;;4.15;;
12908;SDS011;6522;49.622;6.126;2023-08-06T10:54:48;4.95;;;4.57;;
12908;SDS011;6522;49.622;6.126;2023-08-06T10:57:35;6.53;;;6.22;;
12908;SDS011;6522;49.622;6.126;2023-08-06T11:00:22;7.97;;;7.57;;
12908;SDS011;6522;49.622;6.126;2023-08-06T11:03:09;8.15;;;7.65;;
12908;SDS011;6522;49.622;6.126;2023-08-06T11:05:56;10.00;;;9.40;;
12908;SDS011;6522;49.622;6.126;2023-08-06T11:08:47;12.00;;;11.40;;
12908;SDS011;6522;49.622;6.126;2023-08-06T11:11:30;8.47;;;8.07;;
12908;SDS011;6522;49.622;6.126;2023-08-06T11:14:16;8.60;;;8.00;;
12908;SDS011;6522;49.622;6.126;2023-08-06T11:17:03;8.80;;;8.40;;
12908;SDS011;6522;49.622;6.126;2023-08-06T11:19:50;8.15;;;7.55;;
12908;SDS011;6522;49.622;6.126;2023-08-06T11:22:37;10.60;;;10.00;;
12908;SDS011;6522;49.622;6.126;2023-08-06T11:25:23;8.90;;;8.40;;
12908;SDS011;6522;49.622;6.126;2023-08-06T11:28:10;10.73;;;10.20;;
12908;SDS011;6522;49.622;6.126;2023-08-06T11:30:57;9.70;;;9.20;;
12908;SDS011;6522;49.622;6.126;2023-08-06T11:33:43;10.35;;;9.75;;
12908;SDS011;6522;49.622;6.126;2023-08-06T11:36:30;11.83;;;11.30;;
12908;SDS011;6522;49.622;6.126;2023-08-06T11:39:16;9.00;;;8.50;;
12908;SDS011;6522;49.622;6.126;2023-08-06T11:42:03;8.32;;;7.72;;
12908;SDS011;6522;49.622;6.126;2023-08-06T11:44:49;11.33;;;10.73;;
12908;SDS011;6522;49.622;6.126;2023-08-06T11:47:39;10.20;;;9.70;;
12908;SDS011;6522;49.622;6.126;2023-08-06T11:50:26;9.90;;;9.40;;
12908;SDS011;6522;49.622;6.126;2023-08-06T11:53:13;11.63;;;11.13;;
12908;SDS011;6522;49.622;6.126;2023-08-06T11:56:00;10.30;;;9.80;;
12908;SDS011;6522;49.622;6.126;2023-08-06T11:58:46;9.80;;;9.20;;
12908;SDS011;6522;49.622;6.126;2023-08-06T12:01:33;11.80;;;11.30;;
12908;SDS011;6522;49.622;6.126;2023-08-06T12:04:20;10.00;;;9.40;;
12908;SDS011;6522;49.622;6.126;2023-08-06T12:07:06;10.00;;;9.40;;
12908;SDS011;6522;49.622;6.126;2023-08-06T12:09:53;12.30;;;11.60;;
12908;SDS011;6522;49.622;6.126;2023-08-06T12:12:40;11.00;;;10.30;;
12908;SDS011;6522;49.622;6.126;2023-08-06T12:15:27;10.35;;;9.75;;
12908;SDS011;6522;49.622;6.126;2023-08-06T12:18:14;12.27;;;11.67;;
12908;SDS011;6522;49.622;6.126;2023-08-06T12:21:01;9.60;;;9.10;;
12908;SDS011;6522;49.622;6.126;2023-08-06T12:23:47;9.70;;;9.20;;
12908;SDS011;6522;49.622;6.126;2023-08-06T12:26:34;10.90;;;10.40;;
12908;SDS011;6522;49.622;6.126;2023-08-06T12:29:21;9.30;;;8.80;;
12908;SDS011;6522;49.622;6.126;2023-08-06T12:32:07;9.60;;;9.10;;
12908;SDS011;6522;49.622;6.126;2023-08-06T12:34:54;8.25;;;7.65;;
12908;SDS011;6522;49.622;6.126;2023-08-06T12:37:41;7.20;;;6.80;;
12908;SDS011;6522;49.622;6.126;2023-08-06T12:40:28;5.80;;;5.40;;
12908;SDS011;6522;49.622;6.126;2023-08-06T12:43:15;6.67;;;6.27;;
12908;SDS011;6522;49.622;6.126;2023-08-06T12:46:02;9.40;;;8.87;;
12908;SDS011;6522;49.622;6.126;2023-08-06T12:48:49;6.90;;;6.50;;
12908;SDS011;6522;49.622;6.126;2023-08-06T12:51:35;5.90;;;5.40;;
12908;SDS011;6522;49.622;6.126;2023-08-06T12:54:22;5.30;;;4.90;;
12908;SDS011;6522;49.622;6.126;2023-08-06T12:57:09;4.07;;;3.78;;
12908;SDS011;6522;49.622;6.126;2023-08-06T12:59:56;3.50;;;2.60;;
12908;SDS011;6522;49.622;6.126;2023-08-06T13:02:42;3.87;;;3.47;;
12908;SDS011;6522;49.622;6.126;2023-08-06T13:05:29;5.85;;;3.45;;
12908;SDS011;6522;49.622;6.126;2023-08-06T13:08:16;3.70;;;3.40;;
12908;SDS011;6522;49.622;6.126;2023-08-06T13:11:02;5.78;;;3.35;;
12908;SDS011;6522;49.622;6.126;2023-08-06T13:13:49;4.68;;;4.25;;
12908;SDS011;6522;49.622;6.126;2023-08-06T13:16:37;4.03;;;3.75;;
12908;SDS011;6522;49.622;6.126;2023-08-06T13:19:22;5.28;;;4.97;;
12908;SDS011;6522;49.622;6.126;2023-08-06T13:22:09;5.05;;;4.65;;
12908;SDS011;6522;49.622;6.126;2023-08-06T13:24:56;6.73;;;6.33;;
12908;SDS011;6522;49.622;6.126;2023-08-06T13:27:43;6.87;;;6.47;;
12908;SDS011;6522;49.622;6.126;2023-08-06T13:30:32;7.60;;;7.20;;
12908;SDS011;6522;49.622;6.126;2023-08-06T13:33:19;6.37;;;5.87;;
12908;SDS011;6522;49.622;6.126;2023-08-06T13:36:06;8.35;;;7.80;;
12908;SDS011;6522;49.622;6.126;2023-08-06T13:38:53;8.30;;;7.90;;
12908;SDS011;6522;49.622;6.126;2023-08-06T13:41:39;7.00;;;6.50;;
12908;SDS011;6522;49.622;6.126;2023-08-06T13:44:26;9.40;;;8.90;;
12908;SDS011;6522;49.622;6.126;2023-08-06T13:47:13;7.20;;;6.70;;
12908;SDS011;6522;49.622;6.126;2023-08-06T13:50:00;5.95;;;5.50;;
12908;SDS011;6522;49.622;6.126;2023-08-06T13:52:46;4.72;;;4.43;;
12908;SDS011;6522;49.622;6.126;2023-08-06T13:55:33;3.85;;;3.55;;
12908;SDS011;6522;49.622;6.126;2023-08-06T13:58:20;5.45;;;5.05;;
12908;SDS011;6522;49.622;6.126;2023-08-06T14:01:09;4.55;;;4.20;;
12908;SDS011;6522;49.622;6.126;2023-08-06T14:03:53;5.43;;;5.00;;
12908;SDS011;6522;49.622;6.126;2023-08-06T14:06:40;6.05;;;5.65;;
12908;SDS011;6522;49.622;6.126;2023-08-06T14:09:26;6.37;;;5.97;;
12908;SDS011;6522;49.622;6.126;2023-08-06T14:12:13;6.03;;;5.72;;
12908;SDS011;6522;49.622;6.126;2023-08-06T14:15:00;6.10;;;5.70;;
12908;SDS011;6522;49.622;6.126;2023-08-06T14:17:47;7.90;;;7.40;;
12908;SDS011;6522;49.622;6.126;2023-08-06T14:20:34;7.68;;;7.28;;
12908;SDS011;6522;49.622;6.126;2023-08-06T14:23:20;7.12;;;6.72;;
12908;SDS011;6522;49.622;6.126;2023-08-06T14:26:07;8.65;;;8.25;;
12908;SDS011;6522;49.622;6.126;2023-08-06T14:28:53;6.03;;;5.63;;
12908;SDS011;6522;49.622;6.126;2023-08-06T14:31:40;8.45;;;7.90;;
12908;SDS011;6522;49.622;6.126;2023-08-06T14:34:27;6.82;;;6.30;;
12908;SDS011;6522;49.622;6.126;2023-08-06T14:37:14;7.55;;;7.15;;
12908;SDS011;6522;49.622;6.126;2023-08-06T14:40:00;6.30;;;5.90;;
12908;SDS011;6522;49.622;6.126;2023-08-06T14:42:47;8.27;;;7.87;;
12908;SDS011;6522;49.622;6.126;2023-08-06T14:45:36;8.00;;;7.53;;
12908;SDS011;6522;49.622;6.126;2023-08-06T14:48:20;8.48;;;7.60;;
12908;SDS011;6522;49.622;6.126;2023-08-06T14:51:07;7.95;;;7.55;;
12908;SDS011;6522;49.622;6.126;2023-08-06T14:53:54;7.18;;;6.78;;
12908;SDS011;6522;49.622;6.126;2023-08-06T14:56:41;7.50;;;6.90;;
12908;SDS011;6522;49.622;6.126;2023-08-06T14:59:27;5.20;;;4.80;;
12908;SDS011;6522;49.622;6.126;2023-08-06T15:02:14;8.05;;;7.50;;
12908;SDS011;6522;49.622;6.126;2023-08-06T15:05:01;8.40;;;8.00;;
12908;SDS011;6522;49.622;6.126;2023-08-06T15:07:47;7.93;;;7.50;;
12908;SDS011;6522;49.622;6.126;2023-08-06T15:10:34;8.32;;;7.62;;
12908;SDS011;6522;49.622;6.126;2023-08-06T15:13:21;8.35;;;7.95;;
12908;SDS011;6522;49.622;6.126;2023-08-06T15:16:08;9.93;;;9.23;;
12908;SDS011;6522;49.622;6.126;2023-08-06T15:18:54;7.82;;;7.37;;
12908;SDS011;6522;49.622;6.126;2023-08-06T15:21:41;8.32;;;7.72;;
12908;SDS011;6522;49.622;6.126;2023-08-06T15:24:28;8.50;;;8.00;;
12908;SDS011;6522;49.622;6.126;2023-08-06T15:27:15;8.27;;;7.78;;
12908;SDS011;6522;49.622;6.126;2023-08-06T15:30:02;8.45;;;7.60;;
12908;SDS011;6522;49.622;6.126;2023-08-06T15:32:48;8.88;;;8.27;;
12908;SDS011;6522;49.622;6.126;2023-08-06T15:35:35;8.27;;;7.43;;
12908;SDS011;6522;49.622;6.126;2023-08-06T15:38:22;7.05;;;6.65;;
12908;SDS011;6522;49.622;6.126;2023-08-06T15:41:08;7.53;;;6.87;;
12908;SDS011;6522;49.622;6.126;2023-08-06T15:43:55;7.93;;;7.35;;
12908;SDS011;6522;49.622;6.126;2023-08-06T15:46:41;8.95;;;8.45;;
12908;SDS011;6522;49.622;6.126;2023-08-06T15:49:28;7.60;;;7.20;;
12908;SDS011;6522;49.622;6.126;2023-08-06T15:52:16;6.70;;;6.20;;
12908;SDS011;6522;49.622;6.126;2023-08-06T15:55:02;6.60;;;6.10;;
12908;SDS011;6522;49.622;6.126;2023-08-06T15:57:49;8.13;;;7.62;;
12908;SDS011;6522;49.622;6.126;2023-08-06T16:00:36;8.55;;;8.05;;
12908;SDS011;6522;49.622;6.126;2023-08-06T16:03:22;7.80;;;7.30;;
12908;SDS011;6522;49.622;6.126;2023-08-06T16:06:10;7.37;;;6.70;;
12908;SDS011;6522;49.622;6.126;2023-08-06T16:08:56;8.07;;;7.53;;
12908;SDS011;6522;49.622;6.126;2023-08-06T16:11:43;8.15;;;7.60;;
12908;SDS011;6522;49.622;6.126;2023-08-06T16:14:30;8.80;;;8.30;;
12908;SDS011;6522;49.622;6.126;2023-08-06T16:17:17;9.38;;;8.88;;
12908;SDS011;6522;49.622;6.126;2023-08-06T16:20:03;9.02;;;8.40;;
12908;SDS011;6522;49.622;6.126;2023-08-06T16:22:50;7.90;;;7.50;;
12908;SDS011;6522;49.622;6.126;2023-08-06T16:25:37;7.90;;;7.35;;
12908;SDS011;6522;49.622;6.126;2023-08-06T16:28:24;8.50;;;8.00;;
12908;SDS011;6522;49.622;6.126;2023-08-06T16:31:11;7.32;;;6.90;;
12908;SDS011;6522;49.622;6.126;2023-08-06T16:33:58;6.50;;;6.10;;
12908;SDS011;6522;49.622;6.126;2023-08-06T16:36:44;6.03;;;5.70;;
12908;SDS011;6522;49.622;6.126;2023-08-06T16:39:31;8.00;;;7.20;;
12908;SDS011;6522;49.622;6.126;2023-08-06T16:42:18;6.85;;;6.35;;
12908;SDS011;6522;49.622;6.126;2023-08-06T16:45:04;7.40;;;6.68;;
12908;SDS011;6522;49.622;6.126;2023-08-06T16:47:52;6.65;;;6.25;;
12908;SDS011;6522;49.622;6.126;2023-08-06T16:50:38;6.85;;;6.35;;
12908;SDS011;6522;49.622;6.126;2023-08-06T16:53:25;5.00;;;4.12;;
12908;SDS011;6522;49.622;6.126;2023-08-06T16:56:12;5.22;;;4.93;;
12908;SDS011;6522;49.622;6.126;2023-08-06T16:58:59;5.15;;;4.85;;
12908;SDS011;6522;49.622;6.126;2023-08-06T17:01:46;5.10;;;4.70;;
12908;SDS011;6522;49.622;6.126;2023-08-06T17:04:33;4.85;;;4.45;;